Time;durP1;ratioP1;P1;durP2;ratioP2;P2;SDS_P1;SDS_P2;PMS_P1;PMS_P2;Temp;Humidity;BMP_temperature;BMP_pressure;BME280_temperature;BME280_humidity;BME280_pressure;Samples;Min_cycle;Max_cycle;Signal;HPM_P1;HPM_P2
2021/08/15 00:00:08;;;;;;;0.40;0.20;;;21.40;99.90;;;;;;5112262;28;20396;-73
2021/08/15 00:02:34;;;;;;;0.40;0.25;;;21.30;99.90;;;;;;5112779;28;20850;-73
2021/08/15 00:04:59;;;;;;;0.40;0.20;;;21.30;99.90;;;;;;5093582;28;20420;-73
2021/08/15 00:07:25;;;;;;;0.40;0.30;;;21.30;99.90;;;;;;5112919;28;20388;-73
2021/08/15 00:09:51;;;;;;;0.40;0.30;;;21.20;99.90;;;;;;5111828;28;20387;-73
2021/08/15 00:12:16;;;;;;;0.40;0.20;;;21.10;99.90;;;;;;5112724;28;20389;-73
2021/08/15 00:14:42;;;;;;;0.40;0.20;;;21.20;99.90;;;;;;5111616;28;20380;-73
2021/08/15 00:17:08;;;;;;;0.40;0.20;;;21.20;99.90;;;;;;5094177;28;20768;-73
2021/08/15 00:19:33;;;;;;;0.40;0.20;;;21.00;99.90;;;;;;5112226;28;20388;-73
2021/08/15 00:21:59;;;;;;;0.40;0.20;;;21.00;99.90;;;;;;5111158;28;20416;-73
2021/08/15 00:24:25;;;;;;;0.40;0.20;;;21.00;99.90;;;;;;5093988;28;20464;-73
2021/08/15 00:26:50;;;;;;;0.40;0.30;;;21.00;99.90;;;;;;5111641;28;20467;-73
2021/08/15 00:29:16;;;;;;;0.40;0.20;;;21.00;99.90;;;;;;5112323;28;20414;-73
2021/08/15 00:31:42;;;;;;;0.40;0.20;;;21.00;99.90;;;;;;5110283;28;20866;-74
2021/08/15 00:34:07;;;;;;;0.40;0.30;;;20.90;99.90;;;;;;5112468;28;20729;-73
2021/08/15 00:36:33;;;;;;;0.40;0.20;;;20.90;99.90;;;;;;5093192;28;20817;-73
2021/08/15 00:38:59;;;;;;;0.40;0.20;;;20.90;99.90;;;;;;5111181;28;20461;-73
2021/08/15 00:41:24;;;;;;;0.40;0.20;;;21.00;99.90;;;;;;5111764;28;20396;-72
2021/08/15 00:43:50;;;;;;;0.40;0.20;;;20.90;99.90;;;;;;5111340;28;20845;-73
2021/08/15 00:46:16;;;;;;;0.40;0.30;;;20.90;99.90;;;;;;5110804;28;20377;-73
2021/08/15 00:48:41;;;;;;;0.40;0.20;;;20.80;99.90;;;;;;5092633;28;20421;-75
2021/08/15 00:51:07;;;;;;;0.40;0.30;;;20.80;99.90;;;;;;5093518;28;20396;-73
2021/08/15 00:53:37;;;;;;;0.40;0.20;;;20.80;99.90;;;;;;5111615;28;20372;-73
2021/08/15 00:56:07;;;;;;;0.40;0.20;;;20.80;99.90;;;;;;5111252;28;20383;-73
2021/08/15 00:58:34;;;;;;;0.40;0.20;;;20.80;99.90;;;;;;5112027;28;20388;-73
2021/08/15 01:01:09;;;;;;;0.40;0.20;;;20.70;99.90;;;;;;5110579;28;20416;-73
2021/08/15 01:03:36;;;;;;;0.40;0.30;;;20.70;99.90;;;;;;5111815;28;20510;-74
2021/08/15 01:06:02;;;;;;;0.40;0.30;;;20.70;99.90;;;;;;5111027;28;20377;-73
2021/08/15 01:08:32;;;;;;;0.40;0.30;;;20.60;99.90;;;;;;5111611;28;20403;-73
2021/08/15 01:11:00;;;;;;;0.40;0.20;;;20.60;99.90;;;;;;5111109;28;20380;-73
2021/08/15 01:13:26;;;;;;;0.40;0.30;;;20.60;99.90;;;;;;5111645;28;20421;-74
2021/08/15 01:15:52;;;;;;;0.40;0.30;;;20.70;99.90;;;;;;5110767;28;20853;-73
2021/08/15 01:18:27;;;;;;;0.40;0.30;;;20.70;99.90;;;;;;5111214;28;20874;-73
2021/08/15 01:21:00;;;;;;;0.40;0.20;;;20.70;99.90;;;;;;5111067;28;20404;-73
2021/08/15 01:23:27;;;;;;;0.40;0.40;;;20.70;99.90;;;;;;5111706;28;20853;-73
2021/08/15 01:25:53;;;;;;;0.90;0.90;;;20.60;99.90;;;;;;5110894;28;20377;-73
2021/08/15 01:28:20;;;;;;;0.40;0.30;;;20.60;99.90;;;;;;5092863;28;20475;-73
2021/08/15 01:30:47;;;;;;;0.77;0.45;;;20.60;99.90;;;;;;5111193;28;20395;-73
2021/08/15 01:33:30;;;;;;;0.40;0.30;;;20.70;99.90;;;;;;5111592;28;20381;-73
2021/08/15 01:35:57;;;;;;;0.40;0.20;;;20.60;99.90;;;;;;5111036;28;20471;-73
2021/08/15 01:38:26;;;;;;;0.40;0.20;;;20.70;99.90;;;;;;5111544;28;20383;-73
2021/08/15 01:40:53;;;;;;;0.40;0.22;;;20.60;99.90;;;;;;5110442;28;20756;-73
2021/08/15 01:43:19;;;;;;;0.40;0.20;;;20.70;99.90;;;;;;5111599;28;20459;-73
2021/08/15 01:45:44;;;;;;;0.40;0.20;;;20.60;99.90;;;;;;5111098;28;20911;-73
2021/08/15 01:48:10;;;;;;;0.40;0.30;;;20.50;99.90;;;;;;5111523;28;20453;-73
2021/08/15 01:50:37;;;;;;;0.40;0.20;;;20.50;99.90;;;;;;5093399;28;20403;-73
2021/08/15 01:53:08;;;;;;;0.40;0.20;;;20.50;99.90;;;;;;5111027;28;20364;-73
2021/08/15 01:55:33;;;;;;;0.40;0.30;;;20.50;99.90;;;;;;5111451;28;20422;-73
2021/08/15 01:57:59;;;;;;;0.40;0.30;;;20.40;99.90;;;;;;5110586;28;20864;-73
2021/08/15 02:00:24;;;;;;;0.40;0.20;;;20.40;99.90;;;;;;5092430;28;20761;-73
2021/08/15 02:02:50;;;;;;;0.40;0.40;;;20.40;99.90;;;;;;5110971;28;20396;-74
2021/08/15 02:05:18;;;;;;;0.40;0.30;;;20.50;99.90;;;;;;5111848;28;20376;-73
2021/08/15 02:07:45;;;;;;;0.40;0.20;;;20.50;99.90;;;;;;5110902;28;20388;-74
2021/08/15 02:10:12;;;;;;;0.40;0.20;;;20.40;99.90;;;;;;5111456;28;20388;-73
2021/08/15 02:12:37;;;;;;;0.40;0.30;;;20.40;99.90;;;;;;5111458;28;20433;-73
2021/08/15 02:15:03;;;;;;;0.40;0.20;;;20.20;99.90;;;;;;5110736;28;20726;-73
2021/08/15 02:17:29;;;;;;;0.40;0.20;;;20.30;99.90;;;;;;5111406;28;20797;-73
2021/08/15 02:19:55;;;;;;;0.40;0.20;;;20.40;99.90;;;;;;5110877;28;20414;-73
2021/08/15 02:22:20;;;;;;;0.40;0.20;;;20.30;99.90;;;;;;5111079;28;20475;-73
2021/08/15 02:24:46;;;;;;;0.40;0.30;;;20.30;99.90;;;;;;5111059;28;20712;-74
2021/08/15 02:27:11;;;;;;;0.40;0.20;;;20.30;99.90;;;;;;5110986;28;20830;-73
2021/08/15 02:29:37;;;;;;;2.70;0.80;;;20.20;99.90;;;;;;5111261;28;20380;-73
2021/08/15 02:32:03;;;;;;;0.40;0.30;;;20.20;99.90;;;;;;5110960;28;20938;-73
2021/08/15 02:34:29;;;;;;;0.40;0.20;;;20.20;99.90;;;;;;5093164;28;20384;-73
2021/08/15 02:36:55;;;;;;;0.40;0.30;;;20.20;99.90;;;;;;5110550;28;20398;-73
2021/08/15 02:39:20;;;;;;;0.40;0.30;;;20.20;99.90;;;;;;5110995;28;20432;-73
2021/08/15 02:41:46;;;;;;;0.40;0.30;;;20.20;99.90;;;;;;5110542;28;20393;-74
2021/08/15 02:44:12;;;;;;;0.40;0.20;;;20.20;99.90;;;;;;5110922;28;20395;-73
2021/08/15 02:46:37;;;;;;;0.50;0.50;;;20.10;99.90;;;;;;5092869;28;20429;-73
2021/08/15 02:49:04;;;;;;;0.40;0.30;;;20.20;99.90;;;;;;5110377;28;20380;-73
2021/08/15 02:51:30;;;;;;;0.40;0.20;;;20.10;99.90;;;;;;5111250;28;20384;-73
2021/08/15 02:53:56;;;;;;;0.40;0.20;;;20.10;99.90;;;;;;5110608;28;20392;-73
2021/08/15 02:56:22;;;;;;;0.40;0.20;;;20.10;99.90;;;;;;5110994;28;20461;-72
2021/08/15 02:58:47;;;;;;;0.40;0.20;;;20.00;99.90;;;;;;5110115;28;20480;-73
2021/08/15 03:01:13;;;;;;;0.40;0.30;;;20.00;99.90;;;;;;5110519;28;20420;-73
2021/08/15 03:03:39;;;;;;;0.40;0.20;;;20.00;99.90;;;;;;5092764;28;20849;-73
2021/08/15 03:06:04;;;;;;;0.40;0.30;;;20.10;99.90;;;;;;5110192;28;20725;-73
2021/08/15 03:08:30;;;;;;;0.40;0.20;;;20.00;99.90;;;;;;5111946;28;20867;-73
2021/08/15 03:10:56;;;;;;;0.40;0.30;;;20.10;99.90;;;;;;5095894;28;20459;-73
2021/08/15 03:13:21;;;;;;;0.40;0.20;;;20.10;99.90;;;;;;5114333;28;20376;-73
2021/08/15 03:15:47;;;;;;;0.40;0.20;;;20.00;99.90;;;;;;5114234;28;20845;-75
2021/08/15 03:18:17;;;;;;;0.40;0.30;;;19.90;99.90;;;;;;5114545;28;20373;-72
2021/08/15 03:20:47;;;;;;;0.40;0.20;;;19.90;99.90;;;;;;5114464;28;20416;-72
2021/08/15 03:23:12;;;;;;;0.40;0.20;;;19.90;99.90;;;;;;5113977;28;20471;-72
2021/08/15 03:25:39;;;;;;;0.40;0.30;;;19.90;99.90;;;;;;5114655;28;20459;-72
2021/08/15 03:28:05;;;;;;;0.40;0.30;;;20.00;99.90;;;;;;5113732;28;20375;-72
2021/08/15 03:30:31;;;;;;;0.40;0.20;;;20.10;99.90;;;;;;5095829;28;20400;-72
2021/08/15 03:32:57;;;;;;;0.40;0.20;;;20.10;99.90;;;;;;5113859;28;20776;-72
2021/08/15 03:35:22;;;;;;;0.40;0.20;;;20.10;99.90;;;;;;5096284;28;20387;-72
2021/08/15 03:37:48;;;;;;;0.40;0.30;;;20.10;99.90;;;;;;5095697;28;20381;-75
2021/08/15 03:40:14;;;;;;;0.40;0.20;;;20.00;99.90;;;;;;5114173;28;20371;-73
2021/08/15 03:42:40;;;;;;;0.40;0.20;;;20.00;99.90;;;;;;5113939;28;20420;-73
2021/08/15 03:45:07;;;;;;;0.40;0.20;;;19.90;99.90;;;;;;5113395;28;20376;-72
2021/08/15 03:47:34;;;;;;;0.40;0.30;;;20.10;99.90;;;;;;5113559;28;20463;-72
2021/08/15 03:50:00;;;;;;;0.40;0.20;;;20.10;99.90;;;;;;5113290;28;20429;-73
2021/08/15 03:52:26;;;;;;;0.40;0.25;;;20.00;99.90;;;;;;5113790;28;20415;-72
2021/08/15 03:54:52;;;;;;;0.40;0.20;;;20.10;99.90;;;;;;5113222;28;20369;-72
2021/08/15 03:57:18;;;;;;;0.40;0.20;;;20.10;99.90;;;;;;5113679;28;20853;-72
2021/08/15 03:59:44;;;;;;;0.40;0.35;;;20.10;99.90;;;;;;5113646;28;20377;-72
2021/08/15 04:02:10;;;;;;;0.40;0.20;;;20.10;99.90;;;;;;5094740;28;20686;-72
2021/08/15 04:04:36;;;;;;;0.40;0.20;;;20.20;99.90;;;;;;5113810;28;20373;-72
2021/08/15 04:07:01;;;;;;;0.40;0.20;;;20.20;99.90;;;;;;5113049;28;20388;-72
2021/08/15 04:09:27;;;;;;;0.40;0.30;;;20.10;99.90;;;;;;5114259;28;20385;-72
2021/08/15 04:11:53;;;;;;;0.40;0.20;;;20.00;99.90;;;;;;5112943;28;20380;-73
2021/08/15 04:14:18;;;;;;;0.40;0.20;;;20.10;99.90;;;;;;5113655;28;20459;-72
2021/08/15 04:16:44;;;;;;;0.40;0.30;;;20.10;99.90;;;;;;5095212;28;20459;-72
2021/08/15 04:19:10;;;;;;;0.40;0.30;;;20.10;99.90;;;;;;5112645;28;20381;-72
2021/08/15 04:21:35;;;;;;;0.40;0.30;;;20.20;99.90;;;;;;5113342;28;20522;-72
2021/08/15 04:24:01;;;;;;;0.50;0.50;;;20.10;99.90;;;;;;5112481;28;20423;-72
2021/08/15 04:26:27;;;;;;;0.40;0.20;;;20.00;99.90;;;;;;5113499;28;20400;-72
2021/08/15 04:28:53;;;;;;;0.40;0.20;;;20.00;99.90;;;;;;5112784;28;20779;-74
2021/08/15 04:31:18;;;;;;;0.40;0.20;;;19.90;99.90;;;;;;5113093;28;20392;-72
2021/08/15 04:33:44;;;;;;;0.40;0.30;;;19.90;99.90;;;;;;5095076;28;20388;-72
2021/08/15 04:36:10;;;;;;;0.40;0.20;;;19.90;99.90;;;;;;5112429;28;20381;-72
2021/08/15 04:38:35;;;;;;;0.80;0.50;;;19.90;99.90;;;;;;5113055;28;20382;-72
2021/08/15 04:41:01;;;;;;;0.60;0.60;;;19.80;99.90;;;;;;5112194;28;20461;-72
2021/08/15 04:43:27;;;;;;;0.40;0.30;;;19.90;99.90;;;;;;5113299;28;20833;-73
2021/08/15 04:45:53;;;;;;;0.40;0.20;;;19.90;99.90;;;;;;5112522;28;20430;-73
2021/08/15 04:48:18;;;;;;;0.40;0.20;;;20.00;99.90;;;;;;5113054;28;20375;-72
2021/08/15 04:50:44;;;;;;;0.40;0.25;;;20.10;99.90;;;;;;5112992;28;20459;-72
2021/08/15 04:53:10;;;;;;;0.40;0.20;;;20.00;99.90;;;;;;5112346;28;20456;-72
2021/08/15 04:55:37;;;;;;;0.40;0.20;;;20.00;99.90;;;;;;5112951;28;20403;-72
2021/08/15 04:58:04;;;;;;;0.40;0.20;;;20.00;99.90;;;;;;5094062;28;20384;-72
2021/08/15 05:00:29;;;;;;;0.50;0.50;;;19.90;99.90;;;;;;5112089;28;20404;-72
2021/08/15 05:02:55;;;;;;;0.40;0.20;;;19.90;99.90;;;;;;5112121;28;20388;-73
2021/08/15 05:05:21;;;;;;;0.40;0.20;;;19.80;99.90;;;;;;5112471;28;20471;-73
2021/08/15 05:07:47;;;;;;;0.40;0.20;;;20.00;99.90;;;;;;5112619;28;20449;-73
2021/08/15 05:10:12;;;;;;;0.40;0.20;;;19.90;99.90;;;;;;5093726;28;20388;-73
2021/08/15 05:12:38;;;;;;;0.40;0.20;;;19.90;99.90;;;;;;5112606;28;20376;-73
2021/08/15 05:15:04;;;;;;;0.40;0.40;;;20.00;99.90;;;;;;5111861;28;20875;-73
2021/08/15 05:17:30;;;;;;;0.40;0.20;;;20.10;99.90;;;;;;5112357;28;20381;-73
2021/08/15 05:19:55;;;;;;;0.40;0.20;;;20.20;99.90;;;;;;5111477;28;20429;-73
2021/08/15 05:22:21;;;;;;;0.40;0.20;;;20.30;99.90;;;;;;5112420;28;20443;-73
2021/08/15 05:24:47;;;;;;;0.40;0.20;;;20.30;99.90;;;;;;5112338;28;20387;-73
2021/08/15 05:27:12;;;;;;;0.40;0.20;;;20.20;99.90;;;;;;5111784;28;20365;-73
2021/08/15 05:29:38;;;;;;;0.40;0.20;;;20.20;99.90;;;;;;5112285;28;20805;-73
2021/08/15 05:32:04;;;;;;;0.40;0.30;;;20.20;99.90;;;;;;5111499;28;20436;-73
2021/08/15 05:34:30;;;;;;;0.40;0.20;;;20.20;99.90;;;;;;5111918;28;20836;-73
2021/08/15 05:36:55;;;;;;;0.40;0.20;;;20.30;99.90;;;;;;5112383;28;20405;-75
2021/08/15 05:39:21;;;;;;;0.40;0.20;;;20.20;99.90;;;;;;5112006;28;20384;-74
2021/08/15 05:41:47;;;;;;;0.40;0.20;;;20.40;99.90;;;;;;5112209;28;20459;-73
2021/08/15 05:44:12;;;;;;;0.40;0.20;;;20.50;99.90;;;;;;5111444;28;20372;-73
2021/08/15 05:46:38;;;;;;;0.40;0.20;;;20.50;99.90;;;;;;5112346;28;20376;-73
2021/08/15 05:49:05;;;;;;;0.40;0.40;;;20.60;99.90;;;;;;5111416;28;20381;-73
2021/08/15 05:51:31;;;;;;;0.40;0.30;;;20.70;99.90;;;;;;5111706;28;20471;-73
2021/08/15 05:53:57;;;;;;;0.40;0.30;;;20.70;99.90;;;;;;5093295;28;20860;-73
2021/08/15 05:56:22;;;;;;;0.40;0.20;;;20.80;99.90;;;;;;5093777;28;20433;-71
2021/08/15 05:58:48;;;;;;;0.40;0.20;;;20.80;99.90;;;;;;5111894;28;20397;-71
2021/08/15 06:01:14;;;;;;;0.40;0.20;;;20.80;99.90;;;;;;5111177;28;20416;-71
2021/08/15 06:03:39;;;;;;;0.40;0.20;;;20.80;99.90;;;;;;5111803;28;20387;-72
2021/08/15 06:06:05;;;;;;;0.40;0.30;;;20.90;99.90;;;;;;5111200;28;20845;-71
2021/08/15 06:08:31;;;;;;;0.40;0.30;;;21.00;99.90;;;;;;5111686;28;20404;-73
2021/08/15 06:10:57;;;;;;;0.40;0.30;;;20.90;99.90;;;;;;5111261;28;20392;-71
2021/08/15 06:13:24;;;;;;;0.40;0.20;;;21.00;99.90;;;;;;5111577;28;20383;-72
2021/08/15 06:15:49;;;;;;;0.40;0.20;;;21.00;99.90;;;;;;5111394;28;20721;-72
2021/08/15 06:18:16;;;;;;;0.40;0.30;;;21.10;99.90;;;;;;5111153;28;20376;-72
2021/08/15 06:20:42;;;;;;;0.40;0.20;;;21.30;99.90;;;;;;5093289;28;20420;-72
2021/08/15 06:23:08;;;;;;;0.40;0.30;;;21.40;99.90;;;;;;5111379;28;20503;-72
2021/08/15 06:25:34;;;;;;;0.40;0.30;;;21.40;99.90;;;;;;5111358;28;20448;-72
2021/08/15 06:27:59;;;;;;;0.40;0.30;;;21.50;99.90;;;;;;5110748;28;20406;-72
2021/08/15 06:30:25;;;;;;;0.40;0.30;;;21.50;99.90;;;;;;5093200;28;20392;-72
2021/08/15 06:32:55;;;;;;;0.40;0.30;;;21.60;99.90;;;;;;5111524;28;20381;-72
2021/08/15 06:35:27;;;;;;;0.40;0.20;;;21.70;99.90;;;;;;5110942;28;20383;-72
2021/08/15 06:37:54;;;;;;;0.40;0.20;;;21.70;99.90;;;;;;5111781;28;20391;-72
2021/08/15 06:40:25;;;;;;;0.40;0.30;;;21.80;99.90;;;;;;5110844;28;20409;-72
2021/08/15 06:42:51;;;;;;;0.40;0.30;;;21.90;99.90;;;;;;5111896;28;20418;-72
2021/08/15 06:45:20;;;;;;;0.40;0.20;;;21.90;99.90;;;;;;5114754;28;20383;-72
2021/08/15 06:47:45;;;;;;;0.40;0.30;;;21.90;99.90;;;;;;5115420;28;20435;-72
2021/08/15 06:50:11;;;;;;;0.40;0.20;;;22.00;99.90;;;;;;5114702;28;20368;-72
2021/08/15 06:52:37;;;;;;;0.40;0.20;;;22.00;99.90;;;;;;5115332;28;20410;-72
2021/08/15 06:55:03;;;;;;;0.40;0.20;;;21.90;99.90;;;;;;5114358;28;20380;-73
2021/08/15 06:57:29;;;;;;;0.40;0.20;;;21.90;99.90;;;;;;5115620;28;20434;-72
2021/08/15 06:59:55;;;;;;;0.40;0.20;;;21.90;99.90;;;;;;5114440;28;20376;-72
2021/08/15 07:02:20;;;;;;;0.40;0.20;;;22.00;99.90;;;;;;5114461;28;20693;-72
2021/08/15 07:04:46;;;;;;;0.40;0.30;;;22.00;99.90;;;;;;5096849;28;20884;-72
2021/08/15 07:07:12;;;;;;;0.90;0.60;;;22.10;99.90;;;;;;5096134;28;20459;-73
2021/08/15 07:09:37;;;;;;;0.40;0.20;;;22.30;99.90;;;;;;5114898;28;20380;-72
2021/08/15 07:12:04;;;;;;;0.40;0.40;;;22.50;99.90;;;;;;5096066;28;20437;-73
2021/08/15 07:14:30;;;;;;;0.40;0.20;;;22.60;99.90;;;;;;5114932;28;20456;-73
2021/08/15 07:16:56;;;;;;;0.40;0.20;;;22.70;99.90;;;;;;5114732;28;20423;-73
2021/08/15 07:19:23;;;;;;;0.40;0.20;;;22.90;99.90;;;;;;5095900;28;20409;-73
2021/08/15 07:21:49;;;;;;;0.40;0.30;;;23.00;99.90;;;;;;5114404;28;20872;-73
2021/08/15 07:24:15;;;;;;;0.40;0.30;;;23.00;99.90;;;;;;5095928;28;20373;-73
2021/08/15 07:26:41;;;;;;;0.40;0.20;;;22.90;99.90;;;;;;5114328;28;20381;-73
2021/08/15 07:29:06;;;;;;;0.40;0.20;;;22.90;99.90;;;;;;5114141;28;20742;-73
2021/08/15 07:31:33;;;;;;;0.40;0.30;;;22.90;99.90;;;;;;5114173;28;20452;-73
2021/08/15 07:33:59;;;;;;;0.40;0.40;;;23.00;99.90;;;;;;5114512;28;20872;-72
2021/08/15 07:36:25;;;;;;;0.40;0.30;;;23.00;99.90;;;;;;5113649;28;20461;-73
2021/08/15 07:38:51;;;;;;;0.40;0.30;;;23.20;99.90;;;;;;5114353;28;20835;-73
2021/08/15 07:41:16;;;;;;;0.40;0.30;;;23.20;99.90;;;;;;5094842;28;20405;-72
2021/08/15 07:43:42;;;;;;;0.40;0.20;;;23.40;99.90;;;;;;5113955;28;20399;-72
2021/08/15 07:46:08;;;;;;;0.40;0.20;;;23.40;99.90;;;;;;5112381;28;20407;-75
2021/08/15 07:48:34;;;;;;;0.40;0.30;;;23.40;99.90;;;;;;5113671;28;20449;-73
2021/08/15 07:51:00;;;;;;;0.40;0.20;;;23.30;99.90;;;;;;5113492;28;20822;-73
2021/08/15 07:53:28;;;;;;;0.40;0.20;;;23.30;99.90;;;;;;5113072;28;20377;-73
2021/08/15 07:55:55;;;;;;;0.40;0.20;;;23.40;99.90;;;;;;5113384;28;20445;-72
2021/08/15 07:58:21;;;;;;;0.40;0.20;;;23.50;99.90;;;;;;5113230;28;20425;-72
2021/08/15 08:00:48;;;;;;;0.40;0.30;;;23.40;99.90;;;;;;5113739;28;20912;-72
2021/08/15 08:03:14;;;;;;;0.40;0.20;;;23.30;99.90;;;;;;5113436;28;20368;-72
2021/08/15 08:05:41;;;;;;;0.40;0.20;;;23.30;99.90;;;;;;5113822;28;20867;-73
2021/08/15 08:08:07;;;;;;;0.40;0.20;;;23.30;99.90;;;;;;5113222;28;20438;-73
2021/08/15 08:10:33;;;;;;;0.40;0.20;;;23.40;99.90;;;;;;5113854;28;20369;-73
2021/08/15 08:12:59;;;;;;;0.40;0.20;;;23.40;99.90;;;;;;5113935;28;20364;-72
2021/08/15 08:15:25;;;;;;;0.40;0.20;;;23.50;99.90;;;;;;5113077;28;20377;-73
2021/08/15 08:17:51;;;;;;;0.40;0.30;;;23.60;99.90;;;;;;5113814;28;20404;-72
2021/08/15 08:20:17;;;;;;;0.40;0.20;;;23.60;99.90;;;;;;5112537;28;20931;-72
2021/08/15 08:22:44;;;;;;;0.40;0.20;;;23.60;99.90;;;;;;5113416;28;20772;-73
2021/08/15 08:25:10;;;;;;;0.40;0.20;;;23.60;99.90;;;;;;5094708;28;20380;-73
2021/08/15 08:27:36;;;;;;;0.40;0.20;;;23.70;99.90;;;;;;5113374;28;20430;-72
2021/08/15 08:30:03;;;;;;;0.40;0.20;;;23.80;99.90;;;;;;5113360;28;20752;-72
2021/08/15 08:32:29;;;;;;;0.40;0.30;;;23.90;99.90;;;;;;5112762;28;20409;-73
2021/08/15 08:34:54;;;;;;;0.40;0.30;;;24.00;99.90;;;;;;5113370;28;20377;-73
2021/08/15 08:37:21;;;;;;;0.40;0.30;;;24.10;99.90;;;;;;5112980;28;20461;-73
2021/08/15 08:39:47;;;;;;;0.40;0.20;;;24.10;99.90;;;;;;5113137;28;20384;-72
2021/08/15 08:42:13;;;;;;;0.40;0.20;;;24.20;99.90;;;;;;5112177;28;20769;-72
2021/08/15 08:44:39;;;;;;;0.40;0.30;;;24.30;99.90;;;;;;5113135;28;20376;-71
2021/08/15 08:47:08;;;;;;;0.40;0.20;;;24.40;99.90;;;;;;5112369;28;20372;-72
2021/08/15 08:49:35;;;;;;;0.40;0.20;;;24.60;99.90;;;;;;5108783;28;20376;-72
2021/08/15 08:52:01;;;;;;;0.40;0.20;;;24.50;99.90;;;;;;5094371;28;20441;-71
2021/08/15 08:54:28;;;;;;;0.40;0.30;;;24.40;99.90;;;;;;5113021;27;20813;-73
2021/08/15 08:56:55;;;;;;;0.40;0.28;;;24.40;99.90;;;;;;5112859;28;20379;-72
2021/08/15 08:59:21;;;;;;;0.40;0.20;;;24.50;99.90;;;;;;5112063;28;20864;-73
2021/08/15 09:01:48;;;;;;;0.40;0.30;;;24.60;99.90;;;;;;5112119;28;20421;-72
2021/08/15 09:04:13;;;;;;;0.40;0.20;;;24.80;99.90;;;;;;5111739;28;20364;-72
2021/08/15 09:06:40;;;;;;;0.40;0.30;;;24.80;99.90;;;;;;5112006;28;20372;-71
2021/08/15 09:09:16;;;;;;;0.40;0.20;;;24.90;99.90;;;;;;5112577;28;20416;-71
2021/08/15 09:11:51;;;;;;;0.40;0.20;;;24.80;99.90;;;;;;5112674;28;20383;-70
2021/08/15 09:14:23;;;;;;;0.40;0.30;;;24.90;99.90;;;;;;5112207;28;20759;-71
2021/08/15 09:16:58;;;;;;;0.40;0.20;;;25.00;99.90;;;;;;5112449;28;20379;-71
2021/08/15 09:19:33;;;;;;;0.40;0.30;;;25.10;99.90;;;;;;5111662;28;20368;-71
2021/08/15 09:22:17;;;;;;;0.40;0.20;;;25.10;99.90;;;;;;5112489;28;20404;-71
2021/08/15 09:25:11;;;;;;;0.40;0.30;;;25.20;99.90;;;;;;5112398;28;20909;-71
2021/08/15 09:27:50;;;;;;;0.40;0.20;;;25.20;99.90;;;;;;5112529;28;20379;-71
2021/08/15 09:30:23;;;;;;;0.40;0.25;;;25.20;99.90;;;;;;5111616;28;20388;-72
2021/08/15 09:33:07;;;;;;;0.40;0.20;;;25.20;99.90;;;;;;5112418;28;20713;-71
2021/08/15 09:35:35;;;;;;;0.40;0.28;;;25.40;99.90;;;;;;5111760;28;20372;-72
2021/08/15 09:38:12;;;;;;;0.40;0.20;;;25.50;99.90;;;;;;5111932;28;20729;-71
2021/08/15 09:40:49;;;;;;;0.40;0.30;;;25.50;99.90;;;;;;5111978;28;20415;-72
2021/08/15 09:43:20;;;;;;;0.40;0.20;;;25.40;99.90;;;;;;5111180;28;20706;-72
2021/08/15 09:45:56;;;;;;;0.40;0.30;;;25.50;99.90;;;;;;5111684;28;20802;-71
2021/08/15 09:48:29;;;;;;;0.40;0.20;;;25.50;99.90;;;;;;5111205;28;20404;-71
2021/08/15 09:51:15;;;;;;;0.40;0.20;;;25.50;99.90;;;;;;5111717;28;20438;-71
2021/08/15 09:53:49;;;;;;;0.40;0.20;;;25.50;99.90;;;;;;5111997;28;20372;-72
2021/08/15 09:56:16;;;;;;;0.40;0.20;;;25.70;99.90;;;;;;5112020;28;20463;-71
2021/08/15 09:58:42;;;;;;;0.40;0.20;;;25.70;99.90;;;;;;5094207;28;20720;-72
2021/08/15 10:01:09;;;;;;;0.40;0.20;;;25.70;99.90;;;;;;5111353;28;20519;-73
2021/08/15 10:03:37;;;;;;;0.40;0.28;;;25.90;99.90;;;;;;5111239;28;20379;-73
2021/08/15 10:06:04;;;;;;;0.40;0.30;;;25.90;99.90;;;;;;5111873;28;20376;-71
2021/08/15 10:08:30;;;;;;;0.40;0.20;;;26.00;99.90;;;;;;5111194;28;20865;-71
2021/08/15 10:10:56;;;;;;;0.40;0.30;;;26.00;99.90;;;;;;5111861;28;20379;-72
2021/08/15 10:13:23;;;;;;;0.40;0.20;;;26.00;99.90;;;;;;5111135;28;20380;-71
2021/08/15 10:16:06;;;;;;;0.40;0.30;;;26.20;99.90;;;;;;5112048;28;20383;-71
2021/08/15 10:18:37;;;;;;;0.40;0.30;;;26.10;99.90;;;;;;5096126;28;20393;-71
2021/08/15 10:21:29;;;;;;;0.40;0.32;;;26.30;99.90;;;;;;5116039;28;20404;-70
2021/08/15 10:24:07;;;;;;;0.40;0.30;;;26.40;99.90;;;;;;5111052;28;20410;-70
2021/08/15 10:26:40;;;;;;;0.40;0.30;;;26.20;99.90;;;;;;5114597;28;20376;-72
2021/08/15 10:29:43;;;;;;;0.40;0.20;;;26.30;99.90;;;;;;5115857;28;20380;-71
2021/08/15 10:32:14;;;;;;;0.40;0.20;;;26.30;99.90;;;;;;5097325;28;20404;-71
2021/08/15 10:35:08;;;;;;;0.40;0.20;;;26.50;99.90;;;;;;5115794;28;20417;-73
2021/08/15 10:37:35;;;;;;;0.40;0.20;;;26.40;99.90;;;;;;5111752;28;20888;-70
2021/08/15 10:40:05;;;;;;;0.40;0.20;;;26.50;99.90;;;;;;5115594;28;20471;-72
2021/08/15 10:42:39;;;;;;;0.40;0.20;;;26.60;99.90;;;;;;5114837;28;20403;-73
2021/08/15 10:45:15;;;;;;;0.40;0.20;;;26.70;99.90;;;;;;5115610;28;20658;-72
2021/08/15 10:47:41;;;;;;;0.40;0.20;;;26.90;99.90;;;;;;5115240;28;20387;-72
2021/08/15 10:50:08;;;;;;;0.40;0.20;;;27.00;99.90;;;;;;5114482;28;20388;-72
2021/08/15 10:52:42;;;;;;;0.40;0.30;;;26.90;99.90;;;;;;5114802;28;20416;-72
2021/08/15 10:55:17;;;;;;;0.40;0.20;;;26.90;99.90;;;;;;5115512;28;20425;-72
2021/08/15 10:57:46;;;;;;;0.40;0.30;;;27.10;99.90;;;;;;5115250;28;20459;-72
2021/08/15 11:00:30;;;;;;;0.40;0.20;;;27.30;99.90;;;;;;5114623;28;20440;-72
2021/08/15 11:03:21;;;;;;;0.40;0.20;;;27.70;99.90;;;;;;5115102;28;20422;-72
2021/08/15 11:05:47;;;;;;;0.40;0.28;;;27.30;99.90;;;;;;5114994;28;20397;-72
2021/08/15 11:08:31;;;;;;;0.40;0.30;;;27.30;99.90;;;;;;5115006;28;20371;-72
2021/08/15 11:11:23;;;;;;;0.40;0.20;;;27.40;99.90;;;;;;5115085;28;20384;-72
2021/08/15 11:14:21;;;;;;;0.40;0.20;;;27.50;99.90;;;;;;5115099;28;20364;-73
2021/08/15 11:16:50;;;;;;;0.40;0.20;;;27.10;99.90;;;;;;5096201;28;20394;-73
2021/08/15 11:19:16;;;;;;;0.40;0.20;;;27.40;99.90;;;;;;5114450;28;20845;-73
2021/08/15 11:22:24;;;;;;;0.40;0.30;;;27.50;99.90;;;;;;5114696;28;20399;-74
2021/08/15 11:25:02;;;;;;;0.40;0.20;;;27.80;99.90;;;;;;5094379;28;20461;-74
2021/08/15 11:27:35;;;;;;;0.40;0.30;;;27.60;99.90;;;;;;5093357;28;20863;-74
2021/08/15 11:30:05;;;;;;;0.40;0.20;;;27.80;99.90;;;;;;5075473;28;20723;-73
2021/08/15 11:32:32;;;;;;;0.40;0.20;;;27.60;99.90;;;;;;5093831;28;20865;-73
2021/08/15 11:35:10;;;;;;;0.40;0.30;;;27.90;99.90;;;;;;5094441;28;20375;-72
2021/08/15 11:37:48;;;;;;;0.40;0.20;;;28.00;99.90;;;;;;5093582;28;20382;-73
2021/08/15 11:40:21;;;;;;;0.40;0.20;;;27.90;99.90;;;;;;5094081;28;20409;-72
2021/08/15 11:42:58;;;;;;;0.40;0.40;;;27.80;99.90;;;;;;5094229;28;20864;-75
2021/08/15 11:45:34;;;;;;;0.40;0.20;;;28.10;99.90;;;;;;5112030;28;20521;-73
2021/08/15 11:48:10;;;;;;;0.40;0.30;;;28.00;99.90;;;;;;5108940;28;20860;-71
2021/08/15 11:51:03;;;;;;;0.40;0.20;;;28.30;99.90;;;;;;5110869;28;20380;-71
2021/08/15 11:53:31;;;;;;;0.40;0.20;;;28.40;99.90;;;;;;5105095;28;20459;-72
2021/08/15 11:55:59;;;;;;;0.40;0.30;;;28.20;99.90;;;;;;5112461;28;20868;-73
2021/08/15 11:58:25;;;;;;;0.40;0.30;;;28.20;99.90;;;;;;5112631;28;20382;-74
2021/08/15 12:00:51;;;;;;;0.40;0.20;;;28.00;99.90;;;;;;5112105;27;20404;-72
2021/08/15 12:03:26;;;;;;;0.40;0.20;;;28.40;99.90;;;;;;5094436;28;20388;-71
2021/08/15 12:05:56;;;;;;;0.40;0.20;;;28.80;99.90;;;;;;5110027;28;20376;-72
2021/08/15 12:08:37;;;;;;;0.50;0.50;;;29.00;99.90;;;;;;5111767;28;20441;-71
2021/08/15 12:11:23;;;;;;;0.40;0.20;;;29.30;99.90;;;;;;5095063;28;20400;-71
2021/08/15 12:13:52;;;;;;;0.40;0.20;;;29.50;99.90;;;;;;5095499;28;20835;-71
2021/08/15 12:16:22;;;;;;;0.40;0.20;;;29.70;99.90;;;;;;5113645;28;20376;-71
2021/08/15 12:18:47;;;;;;;0.40;0.20;;;29.90;99.90;;;;;;5113643;28;20378;-71
2021/08/15 12:21:16;;;;;;;0.40;0.30;;;30.00;99.90;;;;;;5113581;28;20494;-71
2021/08/15 12:23:57;;;;;;;0.40;0.20;;;29.70;99.90;;;;;;5112748;28;20400;-70
2021/08/15 12:26:31;;;;;;;0.40;0.30;;;29.30;99.90;;;;;;5113285;28;20480;-71
2021/08/15 12:29:06;;;;;;;0.40;0.20;;;28.70;99.90;;;;;;5113853;28;20751;-71
2021/08/15 12:31:34;;;;;;;0.40;0.20;;;28.80;99.90;;;;;;5112854;28;20449;-71
2021/08/15 12:34:18;;;;;;;0.40;0.20;;;29.00;99.90;;;;;;5112917;28;20384;-71
2021/08/15 12:36:52;;;;;;;0.40;0.22;;;29.00;99.90;;;;;;5113111;27;20901;-72
2021/08/15 12:39:27;;;;;;;0.40;0.20;;;29.40;99.90;;;;;;5112812;28;20387;-71
2021/08/15 12:42:03;;;;;;;0.40;0.25;;;30.00;99.90;;;;;;5112340;28;20408;-70
2021/08/15 12:44:31;;;;;;;0.40;0.20;;;30.00;99.90;;;;;;5112266;28;20403;-70
2021/08/15 12:47:09;;;;;;;0.40;0.30;;;29.40;99.90;;;;;;5112535;28;20471;-72
2021/08/15 12:49:43;;;;;;;0.40;0.20;;;29.30;99.90;;;;;;5112445;28;20372;-72
2021/08/15 12:52:17;;;;;;;0.40;0.20;;;29.60;99.90;;;;;;5113138;28;20411;-72
2021/08/15 12:55:17;;;;;;;0.40;0.20;;;29.80;99.90;;;;;;5112195;28;20411;-69